Sonora Municipal Airport Sonora US
ICAO: KSOA
IATA: SOA
Category: Medium
Scheduled Services: No

Elevation: 2140 ft
TransAlt. 18000 ft.

Airport Communications:
AWOS 3:118.075
HOUSTON CNTR:125.75
CTAF/UNICOM:122.8

KSOA Zoom In..

Runways:

(A) RW 18 length 4037 ft width 60 ft
---- / hdg 182

(B) RW 36 length 4037 ft width 60 ft
---- / hdg 2

Location; KSOA
Day. 10 / Time. 11.15 Zulu
* Altimeter: 30.06
* Temperature: 14° c. 57.2°f.
* Wind from: 030° Speed 07 kn.
Dewpoint: 13° c.
Visibility: 10 Statute Miles.
Clouds: Clear (automated report).

KSOA 101115Z AUTO 03007KT 10SM CLR 14/13 A3006 RMK AO2


Wind From 030°
Speed 07 kn.

 
 
jpsmedia worldairports.se 2020   terms of use